createdAt,value
2018-07-16T00:02:13.241Z,99.90
2018-07-16T00:04:40.386Z,99.90
2018-07-16T00:07:07.506Z,99.90
2018-07-16T00:09:35.141Z,99.90
2018-07-16T00:12:02.308Z,99.90
2018-07-16T00:14:29.414Z,99.90
2018-07-16T00:16:56.632Z,99.90
2018-07-16T00:19:23.729Z,99.90
2018-07-16T00:24:17.967Z,99.90
2018-07-16T00:26:45.076Z,99.90
2018-07-16T00:29:12.194Z,99.90
2018-07-16T00:31:39.343Z,99.90
2018-07-16T00:34:06.513Z,99.90
2018-07-16T00:36:33.668Z,99.90
2018-07-16T00:39:00.850Z,99.90
2018-07-16T00:41:28.025Z,99.90
2018-07-16T00:43:55.180Z,99.90
2018-07-16T00:46:22.321Z,99.90
2018-07-16T00:48:49.381Z,99.90
2018-07-16T00:51:16.484Z,99.90
2018-07-16T00:53:43.544Z,99.90
2018-07-16T00:56:10.663Z,99.90
2018-07-16T00:58:37.856Z,99.90
2018-07-16T01:01:04.952Z,99.90
2018-07-16T01:03:32.154Z,99.90
2018-07-16T01:05:59.276Z,99.90
2018-07-16T01:08:26.469Z,99.90
2018-07-16T01:10:53.583Z,99.90
2018-07-16T01:13:20.677Z,99.90
2018-07-16T01:15:48.142Z,99.90
2018-07-16T01:18:15.401Z,99.90
2018-07-16T01:20:42.464Z,99.90
2018-07-16T01:23:09.657Z,99.90
2018-07-16T01:25:36.882Z,99.90
2018-07-16T01:28:04.283Z,99.90
2018-07-16T01:30:31.395Z,99.90
2018-07-16T01:32:58.536Z,99.90
2018-07-16T01:35:25.643Z,99.90
2018-07-16T01:37:52.746Z,99.90
2018-07-16T01:40:19.832Z,99.90
2018-07-16T01:42:47.060Z,99.90
2018-07-16T01:45:14.154Z,99.90
2018-07-16T01:47:41.254Z,99.90
2018-07-16T01:50:08.585Z,99.90
2018-07-16T01:52:35.805Z,99.90
2018-07-16T01:55:02.948Z,99.90
2018-07-16T01:57:30.027Z,99.90
2018-07-16T01:59:57.233Z,99.90
2018-07-16T02:04:51.437Z,99.90
2018-07-16T02:07:18.510Z,99.90
2018-07-16T02:09:45.630Z,99.90
2018-07-16T02:12:12.819Z,99.90
2018-07-16T02:14:39.895Z,99.90
2018-07-16T02:17:06.976Z,99.90
2018-07-16T02:19:34.100Z,99.90
2018-07-16T02:22:01.205Z,99.90
2018-07-16T02:24:28.271Z,99.90
2018-07-16T02:26:55.318Z,99.90
2018-07-16T02:29:22.395Z,99.90
2018-07-16T02:31:49.467Z,99.90
2018-07-16T02:34:16.592Z,99.90
2018-07-16T02:36:43.727Z,99.90
2018-07-16T02:39:10.856Z,99.90
2018-07-16T02:41:37.943Z,99.90
2018-07-16T02:44:05.048Z,99.90
2018-07-16T02:46:32.072Z,99.90
2018-07-16T02:48:59.170Z,99.90
2018-07-16T02:51:26.256Z,99.90
2018-07-16T02:56:20.589Z,99.90
2018-07-16T02:58:47.643Z,99.90
2018-07-16T03:01:14.894Z,99.90
2018-07-16T03:03:42.024Z,99.90
2018-07-16T03:06:09.105Z,99.90
2018-07-16T03:08:36.284Z,99.90
2018-07-16T03:11:03.473Z,99.90
2018-07-16T03:13:30.577Z,99.90
2018-07-16T03:15:57.710Z,99.90
2018-07-16T03:18:25.000Z,99.90
2018-07-16T03:20:52.142Z,99.90
2018-07-16T03:23:19.277Z,99.90
2018-07-16T03:25:46.544Z,99.90
2018-07-16T03:28:13.763Z,99.90
2018-07-16T03:30:40.898Z,99.90
2018-07-16T03:33:07.960Z,99.90
2018-07-16T03:35:35.060Z,99.90
2018-07-16T03:38:02.131Z,99.90
2018-07-16T03:40:29.577Z,99.90
2018-07-16T03:42:56.777Z,99.90
2018-07-16T03:45:23.884Z,99.90
2018-07-16T03:47:51.075Z,99.90
2018-07-16T03:52:45.484Z,99.90
2018-07-16T03:55:12.629Z,99.90
2018-07-16T03:57:39.717Z,99.90
2018-07-16T04:00:06.818Z,99.90
2018-07-16T04:02:33.894Z,99.90
2018-07-16T04:05:01.084Z,99.90
2018-07-16T04:07:28.383Z,99.90
2018-07-16T04:09:55.475Z,99.90
2018-07-16T04:12:22.600Z,99.90
2018-07-16T04:14:49.767Z,99.90
2018-07-16T04:17:16.846Z,99.90
2018-07-16T04:19:44.047Z,99.90
2018-07-16T04:22:11.188Z,99.90
2018-07-16T04:24:38.282Z,99.90
2018-07-16T04:27:05.584Z,99.90
2018-07-16T04:29:32.652Z,99.90
2018-07-16T04:31:59.700Z,99.90
2018-07-16T04:34:26.820Z,99.90
2018-07-16T04:39:21.113Z,99.90
2018-07-16T04:41:48.236Z,99.90
2018-07-16T04:44:15.329Z,99.90
2018-07-16T04:46:42.396Z,99.90
2018-07-16T04:49:09.506Z,99.90
2018-07-16T04:51:36.580Z,99.90
2018-07-16T04:54:03.711Z,99.90
2018-07-16T04:56:30.799Z,99.90
2018-07-16T04:58:57.876Z,99.90
2018-07-16T05:01:25.059Z,99.90
2018-07-16T05:03:52.831Z,99.90
2018-07-16T05:06:20.015Z,99.90
2018-07-16T05:08:47.083Z,99.90
2018-07-16T05:11:14.192Z,99.90
2018-07-16T05:13:41.358Z,99.90
2018-07-16T05:16:08.425Z,99.90
2018-07-16T05:18:35.734Z,99.90
2018-07-16T05:21:02.872Z,99.90
2018-07-16T05:23:29.988Z,99.90
2018-07-16T05:25:57.077Z,99.90
2018-07-16T05:28:24.185Z,99.90
2018-07-16T05:30:51.285Z,99.90
2018-07-16T05:33:18.365Z,99.90
2018-07-16T05:35:45.604Z,99.90
2018-07-16T05:38:12.802Z,99.90
2018-07-16T05:40:39.840Z,99.90
2018-07-16T05:43:06.921Z,99.90
2018-07-16T05:45:34.002Z,99.90
2018-07-16T05:48:01.156Z,99.90
2018-07-16T05:50:28.382Z,99.90
2018-07-16T05:52:55.553Z,99.90
2018-07-16T05:55:22.628Z,99.90
2018-07-16T05:57:49.799Z,99.90
2018-07-16T06:00:16.957Z,99.90
2018-07-16T06:02:44.157Z,99.90
2018-07-16T06:05:13.862Z,99.90
2018-07-16T06:07:41.170Z,99.90
2018-07-16T06:10:08.351Z,99.90
2018-07-16T06:12:35.437Z,99.90
2018-07-16T06:15:02.948Z,99.90
2018-07-16T06:17:30.053Z,99.90
2018-07-16T06:19:57.187Z,99.90
2018-07-16T06:22:24.275Z,99.90
2018-07-16T06:24:51.349Z,99.90
2018-07-16T06:27:18.455Z,99.90
2018-07-16T06:29:45.543Z,99.90
2018-07-16T06:32:12.672Z,99.90
2018-07-16T06:34:39.753Z,99.90
2018-07-16T06:37:07.013Z,99.90
2018-07-16T06:39:34.658Z,99.90
2018-07-16T06:42:01.762Z,99.90
2018-07-16T06:44:28.926Z,99.90
2018-07-16T06:46:55.998Z,99.90
2018-07-16T07:06:06.951Z,99.90
2018-07-16T07:08:34.070Z,99.90
2018-07-16T07:11:01.186Z,99.90
2018-07-16T07:13:28.421Z,99.90
2018-07-16T07:15:55.576Z,99.90
2018-07-16T07:18:22.643Z,99.90
2018-07-16T07:20:49.751Z,99.90
2018-07-16T07:23:16.910Z,99.90
2018-07-16T07:25:44.142Z,99.90
2018-07-16T07:28:12.170Z,99.90
2018-07-16T07:30:40.037Z,99.90
2018-07-16T07:33:07.637Z,99.90
2018-07-16T07:35:34.849Z,99.90
2018-07-16T07:38:01.930Z,99.90
2018-07-16T07:40:29.068Z,99.90
2018-07-16T07:42:56.197Z,99.90
2018-07-16T07:45:23.317Z,99.90
2018-07-16T07:47:50.449Z,99.90
2018-07-16T07:50:17.603Z,99.90
2018-07-16T07:52:44.831Z,99.90
2018-07-16T07:55:12.267Z,99.90
2018-07-16T07:57:39.050Z,99.90
2018-07-16T08:00:06.246Z,99.90
2018-07-16T08:02:33.951Z,99.90
2018-07-16T08:05:01.470Z,99.90
2018-07-16T08:07:28.703Z,99.90
2018-07-16T08:09:55.933Z,99.90
2018-07-16T08:12:23.194Z,99.90
2018-07-16T08:14:50.410Z,99.90
2018-07-16T08:17:17.509Z,99.90
2018-07-16T08:19:44.677Z,99.90
2018-07-16T08:22:11.872Z,99.90
2018-07-16T08:24:38.972Z,99.90
2018-07-16T08:27:06.108Z,99.90
2018-07-16T08:29:33.266Z,99.90
2018-07-16T08:32:00.381Z,99.90
2018-07-16T08:34:27.564Z,99.90
2018-07-16T08:36:54.768Z,99.90
2018-07-16T08:39:21.898Z,99.90
2018-07-16T08:41:49.082Z,99.90
2018-07-16T08:44:16.345Z,99.90
2018-07-16T08:46:43.505Z,99.90
2018-07-16T08:49:10.697Z,99.90
2018-07-16T08:51:37.844Z,99.90
2018-07-16T08:54:05.092Z,99.90
2018-07-16T08:56:32.235Z,99.90
2018-07-16T08:58:59.497Z,99.90
2018-07-16T09:01:26.620Z,99.90
2018-07-16T09:03:53.701Z,99.90
2018-07-16T09:06:20.921Z,99.90
2018-07-16T09:08:48.204Z,99.90
2018-07-16T09:11:15.792Z,99.90
2018-07-16T09:13:42.885Z,99.90
2018-07-16T09:16:10.021Z,99.90
2018-07-16T09:18:37.182Z,99.90
2018-07-16T09:21:04.402Z,99.90
2018-07-16T09:28:25.987Z,99.90
2018-07-16T09:30:53.160Z,99.90
2018-07-16T09:33:20.298Z,99.90
2018-07-16T09:35:47.411Z,99.90
2018-07-16T09:38:14.533Z,99.90
2018-07-16T09:40:41.932Z,99.90
2018-07-16T09:43:10.236Z,99.90
2018-07-16T09:45:37.552Z,99.90
2018-07-16T09:48:04.831Z,99.90
2018-07-16T09:50:32.007Z,99.90
2018-07-16T09:52:59.188Z,99.90
2018-07-16T09:55:26.679Z,99.90
2018-07-16T09:57:53.916Z,99.90
2018-07-16T10:00:26.777Z,99.90
2018-07-16T10:02:54.237Z,99.90
2018-07-16T10:05:21.643Z,99.90
2018-07-16T10:07:48.949Z,99.90
2018-07-16T10:10:16.573Z,99.90
2018-07-16T10:12:43.876Z,99.90
2018-07-16T10:15:11.101Z,99.90
2018-07-16T10:17:38.250Z,99.90
2018-07-16T10:20:05.609Z,99.90
2018-07-16T10:22:32.935Z,99.90
2018-07-16T10:25:00.172Z,99.90
2018-07-16T10:27:27.509Z,99.90
2018-07-16T10:29:55.076Z,99.90
2018-07-16T10:32:22.188Z,99.90
2018-07-16T10:34:49.284Z,99.90
2018-07-16T10:37:16.423Z,99.90
2018-07-16T10:39:43.724Z,99.90
2018-07-16T10:42:10.907Z,99.90
2018-07-16T10:44:38.013Z,99.90
2018-07-16T10:47:05.258Z,99.90
2018-07-16T10:49:32.551Z,99.90
2018-07-16T10:51:59.769Z,99.90
2018-07-16T10:54:27.475Z,99.90
2018-07-16T10:56:54.662Z,99.90
2018-07-16T10:59:21.830Z,99.90
2018-07-16T11:01:48.980Z,99.90
2018-07-16T11:04:16.128Z,99.80
2018-07-16T11:06:43.292Z,99.90
2018-07-16T11:09:10.428Z,99.90
2018-07-16T11:11:38.064Z,99.40
2018-07-16T11:14:05.194Z,99.00
2018-07-16T11:16:32.391Z,98.30
2018-07-16T11:35:43.014Z,95.40
2018-07-16T11:38:10.228Z,94.00
2018-07-16T11:43:05.022Z,94.30
2018-07-16T11:45:32.364Z,93.30
2018-07-16T11:47:59.499Z,92.30
2018-07-16T11:50:26.765Z,92.00
2018-07-16T11:52:53.934Z,90.80
2018-07-16T11:55:21.190Z,90.10
2018-07-16T11:57:48.460Z,90.40
2018-07-16T12:00:15.728Z,91.30
2018-07-16T12:02:42.915Z,90.40
2018-07-16T12:05:10.151Z,90.30
2018-07-16T12:07:38.421Z,90.40
2018-07-16T12:10:05.647Z,90.10
2018-07-16T12:15:00.195Z,84.80
2018-07-16T12:17:27.402Z,84.40
2018-07-16T12:19:54.557Z,82.90
2018-07-16T12:22:21.755Z,81.40
2018-07-16T12:24:49.117Z,79.50
2018-07-16T12:27:16.318Z,78.90
2018-07-16T12:29:43.575Z,77.10
2018-07-16T12:32:11.209Z,74.60
2018-07-16T12:34:38.493Z,74.00
2018-07-16T12:37:05.937Z,72.40
2018-07-16T12:39:33.201Z,72.80
2018-07-16T12:42:00.354Z,71.70
2018-07-16T12:44:27.614Z,68.70
2018-07-16T12:46:54.798Z,66.30
2018-07-16T12:49:22.286Z,65.50
2018-07-16T12:51:49.643Z,65.40
2018-07-16T12:54:17.840Z,65.40
2018-07-16T12:56:45.258Z,67.00
2018-07-16T13:01:39.719Z,66.60
2018-07-16T13:04:07.644Z,64.20
2018-07-16T13:06:34.928Z,58.50
2018-07-16T13:11:29.451Z,57.80
2018-07-16T13:13:56.661Z,57.80
2018-07-16T13:18:51.242Z,56.90
2018-07-16T13:21:18.517Z,56.90
2018-07-16T13:23:45.767Z,55.80
2018-07-16T13:26:14.285Z,54.60
2018-07-16T13:28:41.813Z,54.50
2018-07-16T13:31:09.324Z,54.00
2018-07-16T13:33:36.621Z,54.70
2018-07-16T13:36:04.497Z,53.10
2018-07-16T13:38:31.744Z,53.10
2018-07-16T13:40:59.462Z,52.30
2018-07-16T13:43:26.597Z,51.90
2018-07-16T13:45:53.852Z,51.50
2018-07-16T13:48:21.164Z,50.70
2018-07-16T13:50:48.455Z,50.70
2018-07-16T13:53:15.928Z,50.10
2018-07-16T13:55:43.164Z,49.20
2018-07-16T13:58:10.380Z,48.70
2018-07-16T14:00:37.870Z,48.40
2018-07-16T14:05:32.451Z,48.30
2018-07-16T14:08:00.034Z,48.30
2018-07-16T14:10:27.648Z,49.30
2018-07-16T14:12:54.928Z,47.80
2018-07-16T14:15:22.201Z,47.70
2018-07-16T14:17:49.433Z,47.30
2018-07-16T14:20:16.784Z,46.10
2018-07-16T14:22:44.165Z,45.30
2018-07-16T14:25:12.184Z,44.50
2018-07-16T14:27:39.335Z,44.70
2018-07-16T14:30:07.358Z,44.70
2018-07-16T14:32:35.289Z,45.00
2018-07-16T14:35:02.665Z,45.10
2018-07-16T14:37:29.903Z,44.70
2018-07-16T14:39:57.168Z,43.90
2018-07-16T14:42:24.344Z,43.00
2018-07-16T14:44:51.519Z,43.10
2018-07-16T14:47:19.706Z,42.80
2018-07-16T14:49:46.934Z,41.30
2018-07-16T14:52:14.221Z,40.40
2018-07-16T14:54:42.041Z,41.00
2018-07-16T14:57:09.361Z,41.20
2018-07-16T14:59:36.628Z,41.80
2018-07-16T15:02:03.934Z,41.90
2018-07-16T15:04:31.635Z,41.40
2018-07-16T15:06:58.938Z,41.70
2018-07-16T15:11:53.849Z,41.10
2018-07-16T15:14:21.160Z,41.20
2018-07-16T15:16:48.432Z,40.70
2018-07-16T15:19:15.587Z,41.70
2018-07-16T15:21:43.329Z,42.10
2018-07-16T15:24:10.427Z,42.20
2018-07-16T15:26:37.583Z,42.30
2018-07-16T15:29:04.882Z,40.20
2018-07-16T15:31:32.914Z,40.60
2018-07-16T15:34:00.135Z,41.00
2018-07-16T15:36:27.372Z,41.00
2018-07-16T15:38:56.042Z,41.90
2018-07-16T15:41:24.842Z,41.80
2018-07-16T15:43:52.169Z,42.00
2018-07-16T15:46:19.984Z,41.90
2018-07-16T15:48:47.153Z,41.90
2018-07-16T15:51:15.232Z,42.30
2018-07-16T15:53:42.762Z,42.40
2018-07-16T15:56:11.094Z,42.60
2018-07-16T15:58:38.328Z,42.90
2018-07-16T16:01:06.025Z,42.60
2018-07-16T16:03:33.271Z,42.60
2018-07-16T16:06:01.269Z,43.00
2018-07-16T16:08:28.671Z,42.80
2018-07-16T16:10:56.211Z,43.50
2018-07-16T16:13:23.624Z,44.40
2018-07-16T16:15:50.884Z,45.10
2018-07-16T16:18:18.223Z,44.20
2018-07-16T16:20:45.637Z,44.10
2018-07-16T16:23:13.137Z,44.30
2018-07-16T16:25:40.347Z,43.50
2018-07-16T16:28:07.533Z,43.80
2018-07-16T16:30:35.486Z,44.00
2018-07-16T16:33:02.941Z,42.60
2018-07-16T16:35:30.726Z,42.90
2018-07-16T16:37:59.075Z,43.30
2018-07-16T16:40:26.324Z,45.30
2018-07-16T16:42:54.461Z,46.00
2018-07-16T16:45:21.906Z,46.10
2018-07-16T16:47:49.169Z,47.10
2018-07-16T16:50:16.396Z,46.40
2018-07-16T16:52:44.778Z,46.80
2018-07-16T16:55:12.201Z,47.10
2018-07-16T16:57:39.510Z,48.00
2018-07-16T17:00:07.046Z,47.40
2018-07-16T17:02:34.240Z,47.20
2018-07-16T17:05:01.484Z,46.80
2018-07-16T17:07:28.675Z,47.20
2018-07-16T17:09:55.977Z,46.80
2018-07-16T17:12:23.818Z,47.00
2018-07-16T17:14:51.809Z,47.00
2018-07-16T17:17:19.220Z,47.10
2018-07-16T17:19:47.096Z,48.10
2018-07-16T17:22:14.341Z,48.30
2018-07-16T17:24:41.535Z,48.00
2018-07-16T17:29:36.110Z,48.20
2018-07-16T17:32:03.709Z,48.40
2018-07-16T17:36:58.718Z,48.00
2018-07-16T17:39:26.000Z,48.00
2018-07-16T17:41:54.420Z,47.20
2018-07-16T17:44:21.775Z,47.30
2018-07-16T17:46:49.469Z,47.80
2018-07-16T17:49:19.829Z,48.00
2018-07-16T17:51:47.159Z,48.10
2018-07-16T17:54:14.315Z,48.60
2018-07-16T17:56:41.760Z,48.50
2018-07-16T17:59:09.027Z,48.50
2018-07-16T18:01:36.431Z,48.20
2018-07-16T18:04:03.676Z,48.20
2018-07-16T18:06:31.718Z,48.50
2018-07-16T18:08:59.053Z,48.60
2018-07-16T18:11:26.358Z,49.10
2018-07-16T18:13:54.247Z,49.30
2018-07-16T18:16:21.522Z,49.50
2018-07-16T18:18:48.743Z,49.00
2018-07-16T18:21:16.081Z,48.70
2018-07-16T18:23:43.338Z,47.80
2018-07-16T18:26:10.611Z,48.10
2018-07-16T18:31:05.399Z,48.60
2018-07-16T18:33:33.471Z,49.10
2018-07-16T18:36:01.302Z,49.70
2018-07-16T18:38:29.513Z,49.80
2018-07-16T18:40:56.803Z,49.80
2018-07-16T18:43:24.804Z,50.80
2018-07-16T18:45:52.560Z,51.20
2018-07-16T18:48:20.669Z,51.90
2018-07-16T18:50:47.923Z,52.70
2018-07-16T18:53:15.168Z,53.40
2018-07-16T18:58:09.529Z,54.00
2018-07-16T19:00:36.850Z,54.50
2018-07-16T19:03:04.097Z,55.00
2018-07-16T19:07:58.524Z,55.50
2018-07-16T19:10:25.944Z,56.20
2018-07-16T19:12:53.158Z,57.00
2018-07-16T19:15:24.159Z,58.00
2018-07-16T19:17:52.160Z,58.40
2018-07-16T19:20:19.409Z,58.90
2018-07-16T19:22:46.608Z,59.20
2018-07-16T19:25:13.903Z,59.60
2018-07-16T19:27:41.224Z,61.30
2018-07-16T19:30:08.563Z,61.50
2018-07-16T19:32:35.843Z,62.70
2018-07-16T19:35:03.349Z,63.60
2018-07-16T19:37:32.016Z,64.30
2018-07-16T19:39:59.295Z,64.90
2018-07-16T19:42:26.979Z,65.30
2018-07-16T19:44:54.233Z,65.70
2018-07-16T19:47:21.489Z,66.00
2018-07-16T19:49:49.029Z,66.40
2018-07-16T19:52:16.567Z,66.80
2018-07-16T19:54:43.988Z,67.20
2018-07-16T19:57:11.923Z,68.00
2018-07-16T19:59:39.736Z,68.40
2018-07-16T20:02:07.630Z,68.60
2018-07-16T20:04:35.050Z,69.20
2018-07-16T20:07:02.290Z,68.90
2018-07-16T20:09:30.301Z,69.40
2018-07-16T20:11:57.404Z,70.10
2018-07-16T20:14:25.220Z,71.00
2018-07-16T20:19:19.589Z,72.00
2018-07-16T20:21:46.824Z,72.70
2018-07-16T20:24:14.018Z,72.60
2018-07-16T20:26:41.692Z,72.50
2018-07-16T20:29:09.497Z,72.50
2018-07-16T20:31:37.454Z,72.00
2018-07-16T20:34:05.164Z,73.50
2018-07-16T20:36:33.068Z,73.50
2018-07-16T20:39:00.410Z,73.70
2018-07-16T20:41:28.198Z,73.90
2018-07-16T20:43:55.823Z,74.70
2018-07-16T20:46:23.097Z,75.20
2018-07-16T20:48:50.277Z,75.20
2018-07-16T20:51:17.825Z,74.80
2018-07-16T20:53:45.289Z,75.20
2018-07-16T20:56:13.062Z,75.80
2018-07-16T20:58:40.382Z,76.60
2018-07-16T21:01:08.461Z,76.50
2018-07-16T21:03:35.873Z,77.00
2018-07-16T21:06:03.084Z,79.20
2018-07-16T21:08:30.355Z,77.90
2018-07-16T21:10:57.650Z,77.50
2018-07-16T21:13:24.904Z,78.50
2018-07-16T21:15:52.585Z,78.80
2018-07-16T21:18:21.140Z,78.70
2018-07-16T21:20:48.422Z,80.00
2018-07-16T21:23:16.031Z,80.50
2018-07-16T21:25:43.224Z,79.30
2018-07-16T21:28:10.541Z,79.60
2018-07-16T21:30:38.116Z,80.10
2018-07-16T21:33:05.410Z,80.60
2018-07-16T21:35:32.778Z,81.20
2018-07-16T21:37:59.986Z,81.00
2018-07-16T21:40:27.337Z,81.20
2018-07-16T21:42:54.411Z,80.80
2018-07-16T21:45:21.596Z,80.10
2018-07-16T21:47:48.780Z,79.30
2018-07-16T21:50:16.128Z,79.20
2018-07-16T21:52:43.278Z,79.20
2018-07-16T21:55:10.426Z,79.10
2018-07-16T21:57:37.642Z,79.00
2018-07-16T22:00:06.877Z,78.90
2018-07-16T22:02:34.095Z,79.10
2018-07-16T22:05:01.295Z,79.60
2018-07-16T22:07:28.484Z,80.60
2018-07-16T22:09:55.676Z,80.40
2018-07-16T22:12:22.888Z,83.30
2018-07-16T22:14:50.122Z,87.00
2018-07-16T22:17:17.339Z,88.40
2018-07-16T22:19:44.584Z,88.30
2018-07-16T22:22:12.184Z,88.90
2018-07-16T22:24:39.685Z,89.20
2018-07-16T22:27:06.898Z,90.20
2018-07-16T22:29:34.189Z,90.90
2018-07-16T22:32:01.397Z,91.50
2018-07-16T22:34:28.627Z,91.70
2018-07-16T22:36:55.773Z,92.20
2018-07-16T22:39:22.972Z,92.50
2018-07-16T22:41:50.245Z,92.60
2018-07-16T22:44:17.434Z,92.50
2018-07-16T22:46:44.681Z,92.50
2018-07-16T22:49:11.815Z,93.00
2018-07-16T22:51:39.160Z,93.50
2018-07-16T22:54:06.333Z,93.90
2018-07-16T22:56:33.447Z,94.30
2018-07-16T22:59:00.676Z,94.80
2018-07-16T23:01:28.285Z,95.30
2018-07-16T23:03:55.449Z,95.70
2018-07-16T23:06:22.796Z,95.30
2018-07-16T23:08:49.969Z,95.50
2018-07-16T23:11:17.182Z,95.90
2018-07-16T23:13:44.373Z,96.20
2018-07-16T23:16:11.571Z,96.70
2018-07-16T23:18:38.776Z,96.70
2018-07-16T23:21:05.940Z,97.00
2018-07-16T23:23:33.098Z,98.30
2018-07-16T23:26:00.288Z,98.60
2018-07-16T23:28:27.509Z,98.80
2018-07-16T23:30:54.802Z,99.10
2018-07-16T23:33:22.099Z,99.40
2018-07-16T23:35:49.583Z,99.70
2018-07-16T23:38:16.746Z,99.70
2018-07-16T23:40:44.305Z,99.80
2018-07-16T23:43:11.506Z,99.90
2018-07-16T23:45:38.736Z,99.90
2018-07-16T23:48:05.890Z,99.70
2018-07-16T23:50:33.031Z,99.50
2018-07-16T23:53:00.245Z,99.30
2018-07-16T23:55:27.411Z,99.10
2018-07-16T23:57:54.588Z,98.40
